sensor_id;sensor_type;location;lat;lon;timestamp;P1;durP1;ratioP1;P2;durP2;ratioP2
10902;SDS011;5504;47.312;11.060;2024-02-21T00:02:19;1.70;;;1.30;;
10902;SDS011;5504;47.312;11.060;2024-02-21T00:04:45;1.43;;;1.33;;
10902;SDS011;5504;47.312;11.060;2024-02-21T00:07:11;1.37;;;1.20;;
10902;SDS011;5504;47.312;11.060;2024-02-21T00:09:37;1.37;;;1.03;;
10902;SDS011;5504;47.312;11.060;2024-02-21T00:12:02;1.20;;;1.10;;
10902;SDS011;5504;47.312;11.060;2024-02-21T00:14:30;1.90;;;1.20;;
10902;SDS011;5504;47.312;11.060;2024-02-21T00:16:56;1.00;;;1.00;;
10902;SDS011;5504;47.312;11.060;2024-02-21T00:19:21;1.40;;;1.23;;
10902;SDS011;5504;47.312;11.060;2024-02-21T00:21:47;1.53;;;1.10;;
10902;SDS011;5504;47.312;11.060;2024-02-21T00:24:13;1.30;;;1.20;;
10902;SDS011;5504;47.312;11.060;2024-02-21T00:26:39;2.83;;;1.50;;
10902;SDS011;5504;47.312;11.060;2024-02-21T00:29:04;1.60;;;1.40;;
10902;SDS011;5504;47.312;11.060;2024-02-21T00:31:30;1.67;;;1.10;;
10902;SDS011;5504;47.312;11.060;2024-02-21T00:33:56;1.27;;;1.10;;
10902;SDS011;5504;47.312;11.060;2024-02-21T00:36:23;1.33;;;1.20;;
10902;SDS011;5504;47.312;11.060;2024-02-21T00:38:48;2.03;;;1.17;;
10902;SDS011;5504;47.312;11.060;2024-02-21T00:41:14;1.30;;;1.20;;
10902;SDS011;5504;47.312;11.060;2024-02-21T00:43:41;1.97;;;1.17;;
10902;SDS011;5504;47.312;11.060;2024-02-21T00:46:07;1.50;;;1.00;;
10902;SDS011;5504;47.312;11.060;2024-02-21T00:48:33;1.50;;;1.20;;
10902;SDS011;5504;47.312;11.060;2024-02-21T00:50:59;1.67;;;1.20;;
10902;SDS011;5504;47.312;11.060;2024-02-21T00:53:25;1.37;;;1.20;;
10902;SDS011;5504;47.312;11.060;2024-02-21T00:55:50;2.87;;;1.20;;
10902;SDS011;5504;47.312;11.060;2024-02-21T00:58:16;2.03;;;1.30;;
10902;SDS011;5504;47.312;11.060;2024-02-21T01:00:42;1.40;;;1.30;;
10902;SDS011;5504;47.312;11.060;2024-02-21T01:03:07;1.53;;;1.30;;
10902;SDS011;5504;47.312;11.060;2024-02-21T01:05:33;2.10;;;1.30;;
10902;SDS011;5504;47.312;11.060;2024-02-21T01:07:59;1.30;;;1.20;;
10902;SDS011;5504;47.312;11.060;2024-02-21T01:10:25;1.50;;;1.40;;
10902;SDS011;5504;47.312;11.060;2024-02-21T01:12:50;1.30;;;1.20;;
10902;SDS011;5504;47.312;11.060;2024-02-21T01:15:16;1.40;;;1.30;;
10902;SDS011;5504;47.312;11.060;2024-02-21T01:17:42;1.20;;;1.10;;
10902;SDS011;5504;47.312;11.060;2024-02-21T01:20:07;1.30;;;1.20;;
10902;SDS011;5504;47.312;11.060;2024-02-21T01:22:34;1.30;;;1.20;;
10902;SDS011;5504;47.312;11.060;2024-02-21T01:24:59;1.70;;;1.30;;
10902;SDS011;5504;47.312;11.060;2024-02-21T01:27:25;1.63;;;1.33;;
10902;SDS011;5504;47.312;11.060;2024-02-21T01:29:51;1.20;;;1.10;;
10902;SDS011;5504;47.312;11.060;2024-02-21T01:32:16;1.33;;;1.23;;
10902;SDS011;5504;47.312;11.060;2024-02-21T01:34:42;1.60;;;1.40;;
10902;SDS011;5504;47.312;11.060;2024-02-21T01:37:08;1.77;;;1.50;;
10902;SDS011;5504;47.312;11.060;2024-02-21T01:39:34;1.20;;;1.10;;
10902;SDS011;5504;47.312;11.060;2024-02-21T01:42:00;1.60;;;1.40;;
10902;SDS011;5504;47.312;11.060;2024-02-21T01:44:26;2.47;;;1.30;;
10902;SDS011;5504;47.312;11.060;2024-02-21T01:46:54;1.60;;;1.50;;
10902;SDS011;5504;47.312;11.060;2024-02-21T01:49:20;1.87;;;1.50;;
10902;SDS011;5504;47.312;11.060;2024-02-21T01:51:47;1.73;;;1.50;;
10902;SDS011;5504;47.312;11.060;2024-02-21T01:54:13;2.13;;;1.30;;
10902;SDS011;5504;47.312;11.060;2024-02-21T01:56:43;2.50;;;1.20;;
10902;SDS011;5504;47.312;11.060;2024-02-21T01:59:10;1.53;;;1.30;;
10902;SDS011;5504;47.312;11.060;2024-02-21T02:01:37;1.57;;;1.37;;
10902;SDS011;5504;47.312;11.060;2024-02-21T02:04:03;1.53;;;1.43;;
10902;SDS011;5504;47.312;11.060;2024-02-21T02:06:30;2.00;;;1.30;;
10902;SDS011;5504;47.312;11.060;2024-02-21T02:08:56;1.90;;;1.50;;
10902;SDS011;5504;47.312;11.060;2024-02-21T02:11:22;2.20;;;1.50;;
10902;SDS011;5504;47.312;11.060;2024-02-21T02:13:48;1.60;;;1.37;;
10902;SDS011;5504;47.312;11.060;2024-02-21T02:16:14;2.30;;;1.33;;
10902;SDS011;5504;47.312;11.060;2024-02-21T02:18:39;1.73;;;1.47;;
10902;SDS011;5504;47.312;11.060;2024-02-21T02:21:06;1.73;;;1.30;;
10902;SDS011;5504;47.312;11.060;2024-02-21T02:23:39;2.37;;;1.60;;
10902;SDS011;5504;47.312;11.060;2024-02-21T02:26:06;1.63;;;1.50;;
10902;SDS011;5504;47.312;11.060;2024-02-21T02:28:32;1.73;;;1.60;;
10902;SDS011;5504;47.312;11.060;2024-02-21T02:30:58;2.67;;;1.67;;
10902;SDS011;5504;47.312;11.060;2024-02-21T02:33:24;1.47;;;1.33;;
10902;SDS011;5504;47.312;11.060;2024-02-21T02:35:49;1.70;;;1.40;;
10902;SDS011;5504;47.312;11.060;2024-02-21T02:38:15;1.50;;;1.40;;
10902;SDS011;5504;47.312;11.060;2024-02-21T02:40:41;1.70;;;1.60;;
10902;SDS011;5504;47.312;11.060;2024-02-21T02:43:07;1.90;;;1.50;;
10902;SDS011;5504;47.312;11.060;2024-02-21T02:45:33;1.70;;;1.50;;
10902;SDS011;5504;47.312;11.060;2024-02-21T02:47:59;2.03;;;1.40;;
10902;SDS011;5504;47.312;11.060;2024-02-21T02:50:25;2.30;;;1.50;;
10902;SDS011;5504;47.312;11.060;2024-02-21T02:52:55;1.57;;;1.47;;
10902;SDS011;5504;47.312;11.060;2024-02-21T02:55:21;1.87;;;1.40;;
10902;SDS011;5504;47.312;11.060;2024-02-21T02:57:46;1.90;;;1.70;;
10902;SDS011;5504;47.312;11.060;2024-02-21T03:00:13;2.13;;;1.60;;
10902;SDS011;5504;47.312;11.060;2024-02-21T03:02:41;2.47;;;1.57;;
10902;SDS011;5504;47.312;11.060;2024-02-21T03:05:41;1.70;;;1.50;;
10902;SDS011;5504;47.312;11.060;2024-02-21T03:08:00;3.73;;;1.57;;
10902;SDS011;5504;47.312;11.060;2024-02-21T03:10:26;1.80;;;1.60;;
10902;SDS011;5504;47.312;11.060;2024-02-21T03:12:51;2.30;;;1.80;;
10902;SDS011;5504;47.312;11.060;2024-02-21T03:15:18;1.87;;;1.60;;
10902;SDS011;5504;47.312;11.060;2024-02-21T03:17:44;2.33;;;1.67;;
10902;SDS011;5504;47.312;11.060;2024-02-21T03:20:10;2.63;;;1.63;;
10902;SDS011;5504;47.312;11.060;2024-02-21T03:22:36;2.03;;;1.50;;
10902;SDS011;5504;47.312;11.060;2024-02-21T03:25:02;2.03;;;1.40;;
10902;SDS011;5504;47.312;11.060;2024-02-21T03:27:29;4.30;;;1.80;;
10902;SDS011;5504;47.312;11.060;2024-02-21T03:29:55;2.00;;;1.80;;
10902;SDS011;5504;47.312;11.060;2024-02-21T03:32:20;2.37;;;1.73;;
10902;SDS011;5504;47.312;11.060;2024-02-21T03:34:46;2.30;;;2.00;;
10902;SDS011;5504;47.312;11.060;2024-02-21T03:37:12;2.07;;;1.87;;
10902;SDS011;5504;47.312;11.060;2024-02-21T03:39:39;1.90;;;1.70;;
10902;SDS011;5504;47.312;11.060;2024-02-21T03:42:05;3.17;;;1.80;;
10902;SDS011;5504;47.312;11.060;2024-02-21T03:44:31;1.93;;;1.70;;
10902;SDS011;5504;47.312;11.060;2024-02-21T03:46:57;1.90;;;1.60;;
10902;SDS011;5504;47.312;11.060;2024-02-21T03:49:23;2.53;;;1.80;;
10902;SDS011;5504;47.312;11.060;2024-02-21T03:51:49;2.70;;;1.40;;
10902;SDS011;5504;47.312;11.060;2024-02-21T03:54:15;2.33;;;1.90;;
10902;SDS011;5504;47.312;11.060;2024-02-21T03:56:41;2.33;;;1.90;;
10902;SDS011;5504;47.312;11.060;2024-02-21T03:59:07;2.20;;;1.70;;
10902;SDS011;5504;47.312;11.060;2024-02-21T04:01:33;2.90;;;1.63;;
10902;SDS011;5504;47.312;11.060;2024-02-21T04:03:59;2.07;;;1.87;;
10902;SDS011;5504;47.312;11.060;2024-02-21T04:06:25;3.33;;;2.00;;
10902;SDS011;5504;47.312;11.060;2024-02-21T04:08:51;2.00;;;1.80;;
10902;SDS011;5504;47.312;11.060;2024-02-21T04:11:17;2.23;;;1.53;;
10902;SDS011;5504;47.312;11.060;2024-02-21T04:13:44;2.13;;;1.90;;
10902;SDS011;5504;47.312;11.060;2024-02-21T04:16:10;2.23;;;1.70;;
10902;SDS011;5504;47.312;11.060;2024-02-21T04:18:36;2.20;;;1.80;;
10902;SDS011;5504;47.312;11.060;2024-02-21T04:21:02;2.23;;;1.60;;
10902;SDS011;5504;47.312;11.060;2024-02-21T04:23:27;1.90;;;1.53;;
10902;SDS011;5504;47.312;11.060;2024-02-21T04:25:53;2.13;;;1.50;;
10902;SDS011;5504;47.312;11.060;2024-02-21T04:28:19;1.80;;;1.60;;
10902;SDS011;5504;47.312;11.060;2024-02-21T04:30:45;2.60;;;1.63;;
10902;SDS011;5504;47.312;11.060;2024-02-21T04:33:10;2.73;;;2.00;;
10902;SDS011;5504;47.312;11.060;2024-02-21T04:35:36;1.80;;;1.60;;
10902;SDS011;5504;47.312;11.060;2024-02-21T04:38:03;2.00;;;1.80;;
10902;SDS011;5504;47.312;11.060;2024-02-21T04:40:29;2.00;;;1.80;;
10902;SDS011;5504;47.312;11.060;2024-02-21T04:42:55;3.23;;;1.63;;
10902;SDS011;5504;47.312;11.060;2024-02-21T04:45:21;2.37;;;1.77;;
10902;SDS011;5504;47.312;11.060;2024-02-21T04:47:47;1.93;;;1.53;;
10902;SDS011;5504;47.312;11.060;2024-02-21T04:50:13;3.07;;;2.03;;
10902;SDS011;5504;47.312;11.060;2024-02-21T04:52:38;1.90;;;1.80;;
10902;SDS011;5504;47.312;11.060;2024-02-21T04:55:04;2.60;;;1.90;;
10902;SDS011;5504;47.312;11.060;2024-02-21T04:57:31;1.97;;;1.77;;
10902;SDS011;5504;47.312;11.060;2024-02-21T04:59:57;1.60;;;1.50;;
10902;SDS011;5504;47.312;11.060;2024-02-21T05:02:23;1.67;;;1.50;;
10902;SDS011;5504;47.312;11.060;2024-02-21T05:04:49;2.07;;;1.57;;
10902;SDS011;5504;47.312;11.060;2024-02-21T05:07:15;2.27;;;1.77;;
10902;SDS011;5504;47.312;11.060;2024-02-21T05:09:42;2.10;;;1.70;;
10902;SDS011;5504;47.312;11.060;2024-02-21T05:12:08;2.47;;;1.80;;
10902;SDS011;5504;47.312;11.060;2024-02-21T05:14:33;1.80;;;1.50;;
10902;SDS011;5504;47.312;11.060;2024-02-21T05:16:59;1.70;;;1.60;;
10902;SDS011;5504;47.312;11.060;2024-02-21T05:19:25;1.90;;;1.50;;
10902;SDS011;5504;47.312;11.060;2024-02-21T05:21:51;2.07;;;1.80;;
10902;SDS011;5504;47.312;11.060;2024-02-21T05:24:17;2.07;;;1.80;;
10902;SDS011;5504;47.312;11.060;2024-02-21T05:26:42;2.83;;;2.00;;
10902;SDS011;5504;47.312;11.060;2024-02-21T05:29:08;2.40;;;1.73;;
10902;SDS011;5504;47.312;11.060;2024-02-21T05:34:18;2.97;;;2.00;;
10902;SDS011;5504;47.312;11.060;2024-02-21T05:36:44;1.53;;;1.43;;
10902;SDS011;5504;47.312;11.060;2024-02-21T05:39:11;1.80;;;1.50;;
10902;SDS011;5504;47.312;11.060;2024-02-21T05:41:37;1.50;;;1.40;;
10902;SDS011;5504;47.312;11.060;2024-02-21T05:44:03;2.13;;;1.67;;
10902;SDS011;5504;47.312;11.060;2024-02-21T05:46:28;2.03;;;1.70;;
10902;SDS011;5504;47.312;11.060;2024-02-21T05:48:54;1.93;;;1.70;;
10902;SDS011;5504;47.312;11.060;2024-02-21T05:51:20;3.20;;;2.10;;
10902;SDS011;5504;47.312;11.060;2024-02-21T05:53:46;2.80;;;1.90;;
10902;SDS011;5504;47.312;11.060;2024-02-21T05:56:12;3.03;;;2.17;;
10902;SDS011;5504;47.312;11.060;2024-02-21T05:58:38;1.87;;;1.67;;
10902;SDS011;5504;47.312;11.060;2024-02-21T06:01:04;2.70;;;1.70;;
10902;SDS011;5504;47.312;11.060;2024-02-21T06:03:31;2.27;;;1.70;;
10902;SDS011;5504;47.312;11.060;2024-02-21T06:05:58;2.37;;;1.73;;
10902;SDS011;5504;47.312;11.060;2024-02-21T06:08:24;2.23;;;1.70;;
10902;SDS011;5504;47.312;11.060;2024-02-21T06:10:50;2.10;;;1.70;;
10902;SDS011;5504;47.312;11.060;2024-02-21T06:13:19;2.93;;;1.90;;
10902;SDS011;5504;47.312;11.060;2024-02-21T06:15:46;1.63;;;1.53;;
10902;SDS011;5504;47.312;11.060;2024-02-21T06:18:13;2.93;;;1.80;;
10902;SDS011;5504;47.312;11.060;2024-02-21T06:20:38;2.60;;;1.77;;
10902;SDS011;5504;47.312;11.060;2024-02-21T06:23:05;2.30;;;2.00;;
10902;SDS011;5504;47.312;11.060;2024-02-21T06:25:31;2.80;;;2.10;;
10902;SDS011;5504;47.312;11.060;2024-02-21T06:27:57;2.93;;;2.50;;
10902;SDS011;5504;47.312;11.060;2024-02-21T06:30:23;2.90;;;2.60;;
10902;SDS011;5504;47.312;11.060;2024-02-21T06:32:49;4.53;;;2.37;;
10902;SDS011;5504;47.312;11.060;2024-02-21T06:35:14;3.57;;;2.10;;
10902;SDS011;5504;47.312;11.060;2024-02-21T06:37:40;2.87;;;2.43;;
10902;SDS011;5504;47.312;11.060;2024-02-21T06:40:06;3.33;;;2.67;;
10902;SDS011;5504;47.312;11.060;2024-02-21T06:42:32;2.93;;;2.67;;
10902;SDS011;5504;47.312;11.060;2024-02-21T06:44:58;2.60;;;2.00;;
10902;SDS011;5504;47.312;11.060;2024-02-21T06:47:24;2.80;;;2.30;;
10902;SDS011;5504;47.312;11.060;2024-02-21T06:49:49;4.77;;;4.37;;
10902;SDS011;5504;47.312;11.060;2024-02-21T06:52:19;6.67;;;4.20;;
10902;SDS011;5504;47.312;11.060;2024-02-21T06:54:49;3.80;;;2.50;;
10902;SDS011;5504;47.312;11.060;2024-02-21T06:57:15;3.33;;;2.30;;
10902;SDS011;5504;47.312;11.060;2024-02-21T06:59:41;3.93;;;2.40;;
10902;SDS011;5504;47.312;11.060;2024-02-21T07:02:07;2.80;;;2.17;;
10902;SDS011;5504;47.312;11.060;2024-02-21T07:04:33;4.90;;;2.47;;
10902;SDS011;5504;47.312;11.060;2024-02-21T07:06:59;6.23;;;2.50;;
10902;SDS011;5504;47.312;11.060;2024-02-21T07:09:24;5.73;;;2.33;;
10902;SDS011;5504;47.312;11.060;2024-02-21T07:11:50;3.93;;;2.20;;
10902;SDS011;5504;47.312;11.060;2024-02-21T07:14:16;4.57;;;2.30;;
10902;SDS011;5504;47.312;11.060;2024-02-21T07:16:43;5.70;;;2.63;;
10902;SDS011;5504;47.312;11.060;2024-02-21T07:19:09;2.67;;;2.30;;
10902;SDS011;5504;47.312;11.060;2024-02-21T07:21:35;2.27;;;1.90;;
10902;SDS011;5504;47.312;11.060;2024-02-21T07:24:03;5.00;;;2.07;;
10902;SDS011;5504;47.312;11.060;2024-02-21T07:26:29;2.23;;;1.80;;
10902;SDS011;5504;47.312;11.060;2024-02-21T07:28:56;2.17;;;1.60;;
10902;SDS011;5504;47.312;11.060;2024-02-21T07:31:22;3.70;;;1.93;;
10902;SDS011;5504;47.312;11.060;2024-02-21T07:33:47;4.93;;;2.43;;
10902;SDS011;5504;47.312;11.060;2024-02-21T07:36:15;5.43;;;2.60;;
10902;SDS011;5504;47.312;11.060;2024-02-21T07:38:42;5.90;;;2.67;;
10902;SDS011;5504;47.312;11.060;2024-02-21T07:41:07;6.00;;;2.30;;
10902;SDS011;5504;47.312;11.060;2024-02-21T07:43:33;4.33;;;2.30;;
10902;SDS011;5504;47.312;11.060;2024-02-21T07:45:59;4.93;;;2.80;;
10902;SDS011;5504;47.312;11.060;2024-02-21T07:48:25;4.53;;;3.10;;
10902;SDS011;5504;47.312;11.060;2024-02-21T07:50:51;3.30;;;2.53;;
10902;SDS011;5504;47.312;11.060;2024-02-21T07:53:17;3.67;;;2.43;;
10902;SDS011;5504;47.312;11.060;2024-02-21T07:55:43;3.23;;;2.37;;
10902;SDS011;5504;47.312;11.060;2024-02-21T07:58:09;6.00;;;2.50;;
10902;SDS011;5504;47.312;11.060;2024-02-21T08:00:34;4.27;;;2.70;;
10902;SDS011;5504;47.312;11.060;2024-02-21T08:03:00;4.23;;;2.80;;
10902;SDS011;5504;47.312;11.060;2024-02-21T08:05:26;4.37;;;3.40;;
10902;SDS011;5504;47.312;11.060;2024-02-21T08:07:51;4.73;;;4.17;;
10902;SDS011;5504;47.312;11.060;2024-02-21T08:10:17;6.33;;;3.67;;
10902;SDS011;5504;47.312;11.060;2024-02-21T08:12:43;4.83;;;3.37;;
10902;SDS011;5504;47.312;11.060;2024-02-21T08:15:09;4.57;;;3.37;;
10902;SDS011;5504;47.312;11.060;2024-02-21T08:17:36;4.20;;;3.20;;
10902;SDS011;5504;47.312;11.060;2024-02-21T08:20:02;4.17;;;3.20;;
10902;SDS011;5504;47.312;11.060;2024-02-21T08:22:29;4.90;;;3.33;;
10902;SDS011;5504;47.312;11.060;2024-02-21T08:24:55;4.53;;;3.20;;
10902;SDS011;5504;47.312;11.060;2024-02-21T08:27:21;5.53;;;2.80;;
10902;SDS011;5504;47.312;11.060;2024-02-21T08:29:47;4.27;;;2.90;;
10902;SDS011;5504;47.312;11.060;2024-02-21T08:32:13;3.50;;;2.70;;
10902;SDS011;5504;47.312;11.060;2024-02-21T08:34:38;4.17;;;2.70;;
10902;SDS011;5504;47.312;11.060;2024-02-21T08:37:04;3.27;;;2.50;;
10902;SDS011;5504;47.312;11.060;2024-02-21T08:39:30;3.50;;;2.30;;
10902;SDS011;5504;47.312;11.060;2024-02-21T08:41:56;3.23;;;2.33;;
10902;SDS011;5504;47.312;11.060;2024-02-21T08:44:22;5.77;;;3.87;;
10902;SDS011;5504;47.312;11.060;2024-02-21T08:46:51;7.77;;;4.57;;
10902;SDS011;5504;47.312;11.060;2024-02-21T08:49:17;3.33;;;2.10;;
10902;SDS011;5504;47.312;11.060;2024-02-21T08:51:43;2.27;;;1.77;;
10902;SDS011;5504;47.312;11.060;2024-02-21T08:54:08;3.67;;;1.90;;
10902;SDS011;5504;47.312;11.060;2024-02-21T08:56:34;2.13;;;1.70;;
10902;SDS011;5504;47.312;11.060;2024-02-21T08:59:00;2.30;;;1.80;;
10902;SDS011;5504;47.312;11.060;2024-02-21T09:01:26;2.17;;;1.63;;
10902;SDS011;5504;47.312;11.060;2024-02-21T09:03:52;1.83;;;1.50;;
10902;SDS011;5504;47.312;11.060;2024-02-21T09:06:19;3.40;;;1.53;;
10902;SDS011;5504;47.312;11.060;2024-02-21T09:08:45;1.97;;;1.40;;
10902;SDS011;5504;47.312;11.060;2024-02-21T09:11:11;2.40;;;2.03;;
10902;SDS011;5504;47.312;11.060;2024-02-21T09:13:37;3.33;;;2.30;;
10902;SDS011;5504;47.312;11.060;2024-02-21T09:16:02;2.83;;;2.10;;
10902;SDS011;5504;47.312;11.060;2024-02-21T09:18:29;2.83;;;2.00;;
10902;SDS011;5504;47.312;11.060;2024-02-21T09:20:54;2.60;;;2.13;;
10902;SDS011;5504;47.312;11.060;2024-02-21T09:23:23;3.73;;;2.57;;
10902;SDS011;5504;47.312;11.060;2024-02-21T09:25:49;3.17;;;1.90;;
10902;SDS011;5504;47.312;11.060;2024-02-21T09:28:15;2.37;;;2.00;;
10902;SDS011;5504;47.312;11.060;2024-02-21T09:30:41;1.93;;;1.73;;
10902;SDS011;5504;47.312;11.060;2024-02-21T09:33:06;2.17;;;1.90;;
10902;SDS011;5504;47.312;11.060;2024-02-21T09:35:32;2.93;;;1.90;;
10902;SDS011;5504;47.312;11.060;2024-02-21T09:37:58;2.73;;;2.03;;
10902;SDS011;5504;47.312;11.060;2024-02-21T09:40:24;4.93;;;2.23;;
10902;SDS011;5504;47.312;11.060;2024-02-21T09:42:50;2.73;;;1.93;;
10902;SDS011;5504;47.312;11.060;2024-02-21T09:45:29;2.53;;;2.07;;
10902;SDS011;5504;47.312;11.060;2024-02-21T09:50:50;2.73;;;1.80;;
10902;SDS011;5504;47.312;11.060;2024-02-21T09:53:18;3.43;;;2.03;;
10902;SDS011;5504;47.312;11.060;2024-02-21T09:55:44;2.40;;;1.90;;
10902;SDS011;5504;47.312;11.060;2024-02-21T09:58:11;2.50;;;1.70;;
10902;SDS011;5504;47.312;11.060;2024-02-21T10:00:38;2.63;;;1.90;;
10902;SDS011;5504;47.312;11.060;2024-02-21T10:03:03;2.90;;;1.77;;
10902;SDS011;5504;47.312;11.060;2024-02-21T10:05:37;1.87;;;1.70;;
10902;SDS011;5504;47.312;11.060;2024-02-21T10:08:03;2.27;;;2.07;;
10902;SDS011;5504;47.312;11.060;2024-02-21T10:10:30;3.03;;;2.03;;
10902;SDS011;5504;47.312;11.060;2024-02-21T10:13:05;2.33;;;1.90;;
10902;SDS011;5504;47.312;11.060;2024-02-21T10:15:31;1.97;;;1.60;;
10902;SDS011;5504;47.312;11.060;2024-02-21T10:18:00;1.90;;;1.70;;
10902;SDS011;5504;47.312;11.060;2024-02-21T10:20:28;3.30;;;1.80;;
10902;SDS011;5504;47.312;11.060;2024-02-21T10:23:01;2.60;;;1.80;;
10902;SDS011;5504;47.312;11.060;2024-02-21T10:25:36;2.60;;;1.50;;
10902;SDS011;5504;47.312;11.060;2024-02-21T10:28:12;1.80;;;1.60;;
10902;SDS011;5504;47.312;11.060;2024-02-21T10:30:38;2.17;;;1.90;;
10902;SDS011;5504;47.312;11.060;2024-02-21T10:33:03;1.60;;;1.33;;
10902;SDS011;5504;47.312;11.060;2024-02-21T10:35:32;1.53;;;1.10;;
10902;SDS011;5504;47.312;11.060;2024-02-21T10:37:58;1.83;;;1.30;;
10902;SDS011;5504;47.312;11.060;2024-02-21T10:40:25;2.00;;;1.30;;
10902;SDS011;5504;47.312;11.060;2024-02-21T10:42:55;1.57;;;1.40;;
10902;SDS011;5504;47.312;11.060;2024-02-21T10:45:25;1.60;;;1.37;;
10902;SDS011;5504;47.312;11.060;2024-02-21T10:48:17;1.23;;;1.00;;
10902;SDS011;5504;47.312;11.060;2024-02-21T10:56:32;1.00;;;0.90;;
10902;SDS011;5504;47.312;11.060;2024-02-21T10:59:02;2.53;;;1.40;;
10902;SDS011;5504;47.312;11.060;2024-02-21T11:01:29;1.10;;;1.00;;
10902;SDS011;5504;47.312;11.060;2024-02-21T11:04:07;1.97;;;1.17;;
10902;SDS011;5504;47.312;11.060;2024-02-21T11:06:37;1.17;;;1.00;;
10902;SDS011;5504;47.312;11.060;2024-02-21T11:09:05;1.93;;;1.60;;
10902;SDS011;5504;47.312;11.060;2024-02-21T11:11:35;1.27;;;1.17;;
10902;SDS011;5504;47.312;11.060;2024-02-21T11:14:06;1.60;;;1.20;;
10902;SDS011;5504;47.312;11.060;2024-02-21T11:16:37;1.73;;;1.00;;
10902;SDS011;5504;47.312;11.060;2024-02-21T11:19:18;1.80;;;1.27;;
10902;SDS011;5504;47.312;11.060;2024-02-21T11:21:46;1.20;;;1.10;;
10902;SDS011;5504;47.312;11.060;2024-02-21T11:24:13;1.20;;;1.10;;
10902;SDS011;5504;47.312;11.060;2024-02-21T11:26:39;1.50;;;1.07;;
10902;SDS011;5504;47.312;11.060;2024-02-21T11:29:08;2.13;;;1.47;;
10902;SDS011;5504;47.312;11.060;2024-02-21T11:31:39;2.13;;;1.50;;
10902;SDS011;5504;47.312;11.060;2024-02-21T11:34:10;1.73;;;1.00;;
10902;SDS011;5504;47.312;11.060;2024-02-21T11:36:36;1.00;;;0.90;;
10902;SDS011;5504;47.312;11.060;2024-02-21T11:39:13;0.77;;;0.70;;
10902;SDS011;5504;47.312;11.060;2024-02-21T11:42:50;1.47;;;1.00;;
10902;SDS011;5504;47.312;11.060;2024-02-21T11:44:45;0.70;;;0.70;;
10902;SDS011;5504;47.312;11.060;2024-02-21T11:47:11;1.33;;;1.10;;
10902;SDS011;5504;47.312;11.060;2024-02-21T11:49:44;1.03;;;0.80;;
10902;SDS011;5504;47.312;11.060;2024-02-21T11:52:11;1.00;;;0.90;;
10902;SDS011;5504;47.312;11.060;2024-02-21T11:54:40;1.87;;;1.00;;
10902;SDS011;5504;47.312;11.060;2024-02-21T11:57:06;2.40;;;0.90;;
10902;SDS011;5504;47.312;11.060;2024-02-21T11:59:32;1.10;;;0.80;;
10902;SDS011;5504;47.312;11.060;2024-02-21T12:01:59;1.07;;;0.97;;
10902;SDS011;5504;47.312;11.060;2024-02-21T12:04:26;0.80;;;0.70;;
10902;SDS011;5504;47.312;11.060;2024-02-21T12:06:55;0.80;;;0.80;;
10902;SDS011;5504;47.312;11.060;2024-02-21T12:09:23;1.77;;;0.80;;
10902;SDS011;5504;47.312;11.060;2024-02-21T12:12:02;1.83;;;1.00;;
10902;SDS011;5504;47.312;11.060;2024-02-21T12:14:30;0.80;;;0.80;;
10902;SDS011;5504;47.312;11.060;2024-02-21T12:16:57;0.80;;;0.70;;
10902;SDS011;5504;47.312;11.060;2024-02-21T12:19:23;0.83;;;0.80;;
10902;SDS011;5504;47.312;11.060;2024-02-21T12:21:49;1.17;;;0.70;;
10902;SDS011;5504;47.312;11.060;2024-02-21T12:24:21;1.20;;;0.80;;
10902;SDS011;5504;47.312;11.060;2024-02-21T12:26:48;1.60;;;0.90;;
10902;SDS011;5504;47.312;11.060;2024-02-21T12:29:14;1.00;;;0.90;;
10902;SDS011;5504;47.312;11.060;2024-02-21T12:31:40;3.10;;;2.10;;
10902;SDS011;5504;47.312;11.060;2024-02-21T12:34:06;1.57;;;0.90;;
10902;SDS011;5504;47.312;11.060;2024-02-21T12:36:35;0.93;;;0.80;;
10902;SDS011;5504;47.312;11.060;2024-02-21T12:39:06;1.53;;;0.90;;
10902;SDS011;5504;47.312;11.060;2024-02-21T12:41:33;2.07;;;0.97;;
10902;SDS011;5504;47.312;11.060;2024-02-21T12:44:00;0.80;;;0.77;;
10902;SDS011;5504;47.312;11.060;2024-02-21T12:46:26;0.77;;;0.70;;
10902;SDS011;5504;47.312;11.060;2024-02-21T12:48:52;1.30;;;0.60;;
10902;SDS011;5504;47.312;11.060;2024-02-21T12:51:17;2.13;;;1.17;;
10902;SDS011;5504;47.312;11.060;2024-02-21T12:53:46;0.60;;;0.60;;
10902;SDS011;5504;47.312;11.060;2024-02-21T12:56:14;0.60;;;0.60;;
10902;SDS011;5504;47.312;11.060;2024-02-21T12:58:40;0.60;;;0.60;;
10902;SDS011;5504;47.312;11.060;2024-02-21T13:01:06;0.97;;;0.77;;
10902;SDS011;5504;47.312;11.060;2024-02-21T13:03:32;0.80;;;0.80;;
10902;SDS011;5504;47.312;11.060;2024-02-21T13:05:58;1.27;;;0.80;;
10902;SDS011;5504;47.312;11.060;2024-02-21T13:08:24;0.90;;;0.90;;
10902;SDS011;5504;47.312;11.060;2024-02-21T13:10:50;0.80;;;0.80;;
10902;SDS011;5504;47.312;11.060;2024-02-21T13:13:16;1.37;;;1.27;;
10902;SDS011;5504;47.312;11.060;2024-02-21T13:15:42;1.30;;;1.00;;
10902;SDS011;5504;47.312;11.060;2024-02-21T13:18:08;1.13;;;0.80;;
10902;SDS011;5504;47.312;11.060;2024-02-21T13:20:34;1.13;;;1.00;;
10902;SDS011;5504;47.312;11.060;2024-02-21T13:23:00;1.33;;;0.80;;
10902;SDS011;5504;47.312;11.060;2024-02-21T13:25:27;1.00;;;0.70;;
10902;SDS011;5504;47.312;11.060;2024-02-21T13:27:53;1.20;;;1.10;;
10902;SDS011;5504;47.312;11.060;2024-02-21T13:30:19;1.30;;;1.10;;
10902;SDS011;5504;47.312;11.060;2024-02-21T13:32:44;1.53;;;1.10;;
10902;SDS011;5504;47.312;11.060;2024-02-21T13:35:13;1.57;;;1.07;;
10902;SDS011;5504;47.312;11.060;2024-02-21T13:37:39;0.97;;;0.80;;
10902;SDS011;5504;47.312;11.060;2024-02-21T13:40:06;1.20;;;0.97;;
10902;SDS011;5504;47.312;11.060;2024-02-21T13:42:36;2.57;;;0.90;;
10902;SDS011;5504;47.312;11.060;2024-02-21T13:45:03;0.83;;;0.77;;
10902;SDS011;5504;47.312;11.060;2024-02-21T13:47:30;1.40;;;0.90;;
10902;SDS011;5504;47.312;11.060;2024-02-21T13:49:57;0.93;;;0.70;;
10902;SDS011;5504;47.312;11.060;2024-02-21T13:52:23;0.80;;;0.73;;
10902;SDS011;5504;47.312;11.060;2024-02-21T13:54:51;1.40;;;0.77;;
10902;SDS011;5504;47.312;11.060;2024-02-21T13:57:17;0.97;;;0.83;;
10902;SDS011;5504;47.312;11.060;2024-02-21T13:59:43;0.70;;;0.70;;
10902;SDS011;5504;47.312;11.060;2024-02-21T14:02:09;0.97;;;0.73;;
10902;SDS011;5504;47.312;11.060;2024-02-21T14:04:35;0.50;;;0.50;;
10902;SDS011;5504;47.312;11.060;2024-02-21T14:07:00;2.83;;;1.30;;
10902;SDS011;5504;47.312;11.060;2024-02-21T14:09:26;0.87;;;0.80;;
10902;SDS011;5504;47.312;11.060;2024-02-21T14:11:54;1.10;;;0.70;;
10902;SDS011;5504;47.312;11.060;2024-02-21T14:14:20;0.70;;;0.70;;
10902;SDS011;5504;47.312;11.060;2024-02-21T14:16:46;0.80;;;0.70;;
10902;SDS011;5504;47.312;11.060;2024-02-21T14:19:13;0.70;;;0.60;;
10902;SDS011;5504;47.312;11.060;2024-02-21T14:21:39;1.07;;;0.73;;
10902;SDS011;5504;47.312;11.060;2024-02-21T14:24:05;3.03;;;0.80;;
10902;SDS011;5504;47.312;11.060;2024-02-21T14:26:31;0.93;;;0.80;;
10902;SDS011;5504;47.312;11.060;2024-02-21T14:28:57;1.27;;;0.60;;
10902;SDS011;5504;47.312;11.060;2024-02-21T14:31:23;1.20;;;0.90;;
10902;SDS011;5504;47.312;11.060;2024-02-21T14:33:50;1.70;;;0.73;;
10902;SDS011;5504;47.312;11.060;2024-02-21T14:36:16;1.17;;;0.70;;
10902;SDS011;5504;47.312;11.060;2024-02-21T14:38:42;0.83;;;0.80;;
10902;SDS011;5504;47.312;11.060;2024-02-21T14:41:09;1.63;;;0.80;;
10902;SDS011;5504;47.312;11.060;2024-02-21T14:43:37;2.07;;;0.90;;
10902;SDS011;5504;47.312;11.060;2024-02-21T14:46:03;0.97;;;0.80;;
10902;SDS011;5504;47.312;11.060;2024-02-21T14:48:30;0.90;;;0.70;;
10902;SDS011;5504;47.312;11.060;2024-02-21T14:51:00;0.70;;;0.70;;
10902;SDS011;5504;47.312;11.060;2024-02-21T14:53:27;0.70;;;0.70;;
10902;SDS011;5504;47.312;11.060;2024-02-21T14:55:52;0.80;;;0.70;;
10902;SDS011;5504;47.312;11.060;2024-02-21T14:58:23;1.20;;;0.90;;